createdAt,value
2022-08-25T00:01:59.987Z,4.60
2022-08-25T00:04:29.588Z,4.30
2022-08-25T00:07:02.719Z,4.10
2022-08-25T00:09:33.291Z,4.80
2022-08-25T00:12:01.377Z,4.90
2022-08-25T00:14:34.536Z,4.70
2022-08-25T00:17:02.482Z,4.40
2022-08-25T00:19:33.979Z,4.90
2022-08-25T00:22:02.787Z,4.80
2022-08-25T00:24:31.141Z,4.60
2022-08-25T00:27:01.605Z,4.20
2022-08-25T00:29:30.723Z,4.50
2022-08-25T00:31:59.971Z,4.60
2022-08-25T00:34:34.600Z,4.40
2022-08-25T00:37:04.626Z,4.30
2022-08-25T00:39:32.036Z,4.40
2022-08-25T00:42:00.653Z,4.40
2022-08-25T00:44:31.583Z,4.90
2022-08-25T00:47:01.406Z,4.60
2022-08-25T00:49:39.726Z,4.90
2022-08-25T00:52:26.996Z,4.60
2022-08-25T00:55:16.281Z,4.50
2022-08-25T00:57:48.476Z,4.50
2022-08-25T01:00:30.843Z,4.50
2022-08-25T01:02:58.599Z,5.00
2022-08-25T01:05:28.681Z,4.80
2022-08-25T01:07:58.739Z,4.80
2022-08-25T01:10:27.845Z,4.50
2022-08-25T01:13:03.487Z,4.50
2022-08-25T01:15:31.350Z,4.60
2022-08-25T01:17:59.766Z,3.90
2022-08-25T01:20:32.577Z,4.50
2022-08-25T01:23:01.287Z,4.00
2022-08-25T01:25:57.295Z,4.10
2022-08-25T01:28:24.728Z,3.90
2022-08-25T01:30:52.915Z,4.10
2022-08-25T01:33:20.568Z,3.30
2022-08-25T01:35:48.456Z,3.60
2022-08-25T01:38:16.639Z,3.40
2022-08-25T01:40:44.900Z,3.50
2022-08-25T01:43:15.100Z,4.10
2022-08-25T01:45:47.138Z,4.10
2022-08-25T01:48:16.034Z,3.90
2022-08-25T01:50:44.153Z,3.40
2022-08-25T01:53:27.071Z,3.40
2022-08-25T01:56:05.584Z,3.50
2022-08-25T01:58:42.161Z,3.30
2022-08-25T02:01:16.043Z,3.10
2022-08-25T02:03:48.255Z,3.90
2022-08-25T02:06:21.812Z,3.50
2022-08-25T02:09:01.141Z,3.70
2022-08-25T02:11:29.393Z,3.50
2022-08-25T02:13:57.091Z,3.40
2022-08-25T02:16:29.794Z,4.00
2022-08-25T02:18:59.295Z,3.10
2022-08-25T02:21:27.542Z,3.30
2022-08-25T02:23:55.386Z,3.90
2022-08-25T02:26:23.020Z,3.50
2022-08-25T02:28:52.476Z,3.50
2022-08-25T02:31:25.014Z,3.20
2022-08-25T02:33:53.237Z,3.40
2022-08-25T02:36:23.318Z,3.50
2022-08-25T02:38:51.228Z,3.20
2022-08-25T02:41:28.809Z,3.50
2022-08-25T02:44:04.468Z,3.60
2022-08-25T02:46:32.706Z,3.80
2022-08-25T02:49:00.213Z,3.90
2022-08-25T02:51:30.301Z,3.80
2022-08-25T02:54:00.036Z,3.60
2022-08-25T02:56:28.192Z,4.10
2022-08-25T02:58:55.973Z,3.80
2022-08-25T03:01:23.871Z,3.90
2022-08-25T03:03:57.724Z,4.00
2022-08-25T03:06:25.660Z,3.50
2022-08-25T03:08:53.535Z,3.40
2022-08-25T03:11:22.117Z,3.30
2022-08-25T03:13:53.178Z,3.60
2022-08-25T03:16:21.338Z,3.20
2022-08-25T03:18:49.321Z,3.40
2022-08-25T03:21:17.603Z,3.30
2022-08-25T03:23:45.482Z,3.70
2022-08-25T03:26:31.617Z,3.10
2022-08-25T03:28:59.381Z,3.90
2022-08-25T03:31:27.883Z,4.20
2022-08-25T03:33:55.986Z,3.50
2022-08-25T03:36:24.272Z,3.30
2022-08-25T03:38:53.106Z,3.40
2022-08-25T03:41:29.229Z,3.70
2022-08-25T03:43:57.267Z,3.80
2022-08-25T03:46:29.928Z,3.60
2022-08-25T03:48:59.990Z,3.40
2022-08-25T03:51:35.024Z,3.80
2022-08-25T03:54:04.557Z,3.50
2022-08-25T03:56:32.111Z,3.70
2022-08-25T03:58:59.925Z,3.60
2022-08-25T04:01:27.890Z,3.60
2022-08-25T04:03:55.528Z,3.60
2022-08-25T04:06:23.470Z,3.70
2022-08-25T04:08:52.801Z,3.70
2022-08-25T04:11:23.165Z,3.40
2022-08-25T04:13:52.223Z,3.50
2022-08-25T04:16:30.539Z,3.50
2022-08-25T04:19:02.283Z,3.60
2022-08-25T04:21:30.614Z,3.80
2022-08-25T04:23:58.165Z,3.30
2022-08-25T04:26:33.360Z,3.50
2022-08-25T04:29:03.370Z,3.60
2022-08-25T04:31:32.133Z,4.10
2022-08-25T04:34:03.532Z,3.70
2022-08-25T04:36:31.299Z,3.90
2022-08-25T04:38:59.355Z,3.70
2022-08-25T04:41:27.629Z,3.70
2022-08-25T04:43:58.152Z,3.90
2022-08-25T04:46:31.209Z,4.00
2022-08-25T04:49:00.535Z,4.00
2022-08-25T04:51:34.148Z,3.70
2022-08-25T04:54:06.166Z,3.50
2022-08-25T04:56:34.874Z,3.60
2022-08-25T04:59:09.117Z,3.90
2022-08-25T05:01:38.385Z,3.70
2022-08-25T05:04:09.434Z,4.20
2022-08-25T05:06:43.619Z,3.80
2022-08-25T05:09:12.634Z,4.00
2022-08-25T05:11:41.378Z,4.20
2022-08-25T05:14:12.146Z,4.10
2022-08-25T05:16:40.089Z,4.20
2022-08-25T05:19:08.333Z,3.80
2022-08-25T05:21:37.317Z,4.10
2022-08-25T05:24:05.806Z,4.30
2022-08-25T05:26:34.948Z,4.50
2022-08-25T05:29:04.772Z,3.80
2022-08-25T05:31:33.503Z,4.30
2022-08-25T05:34:07.991Z,5.10
2022-08-25T05:36:35.977Z,4.60
2022-08-25T05:39:04.437Z,4.70
2022-08-25T05:41:32.024Z,4.50
2022-08-25T05:43:59.511Z,4.50
2022-08-25T05:46:27.302Z,5.10
2022-08-25T05:48:59.269Z,4.20
2022-08-25T05:51:26.895Z,4.80
2022-08-25T05:53:54.529Z,5.20
2022-08-25T05:56:25.018Z,4.30
2022-08-25T05:58:52.554Z,4.10
2022-08-25T06:01:46.794Z,4.40
2022-08-25T06:04:17.802Z,4.80
2022-08-25T06:06:45.537Z,4.10
2022-08-25T06:09:13.109Z,4.90
2022-08-25T06:11:41.525Z,4.60
2022-08-25T06:14:11.045Z,5.30
2022-08-25T06:16:40.278Z,5.10
2022-08-25T06:19:10.282Z,4.40
2022-08-25T06:21:39.405Z,3.60
2022-08-25T06:24:13.313Z,3.50
2022-08-25T06:26:44.229Z,3.50
2022-08-25T06:29:14.202Z,3.60
2022-08-25T06:31:42.807Z,3.80
2022-08-25T06:34:11.735Z,4.10
2022-08-25T06:36:40.292Z,3.70
2022-08-25T06:39:10.615Z,3.40
2022-08-25T06:41:39.098Z,3.40
2022-08-25T06:44:06.670Z,3.50
2022-08-25T06:46:36.264Z,3.40
2022-08-25T06:49:08.230Z,3.40
2022-08-25T06:51:36.283Z,3.50
2022-08-25T06:54:06.434Z,3.50
2022-08-25T06:56:34.961Z,3.90
2022-08-25T06:59:06.050Z,3.10
2022-08-25T07:01:35.113Z,3.20
2022-08-25T07:04:10.362Z,3.90
2022-08-25T07:06:39.518Z,3.40
2022-08-25T07:09:09.610Z,3.20
2022-08-25T07:11:37.250Z,3.20
2022-08-25T07:14:07.457Z,3.30
2022-08-25T07:16:36.253Z,3.20
2022-08-25T07:19:06.521Z,2.90
2022-08-25T07:21:39.026Z,3.10
2022-08-25T07:24:13.420Z,3.40
2022-08-25T07:26:42.712Z,3.10
2022-08-25T07:29:32.260Z,3.00
2022-08-25T07:32:02.000Z,2.70
2022-08-25T07:34:52.254Z,3.40
2022-08-25T07:40:24.803Z,2.90
2022-08-25T07:42:56.461Z,3.00
2022-08-25T07:45:31.294Z,3.10
2022-08-25T07:48:09.799Z,3.40
2022-08-25T07:50:44.141Z,3.60
2022-08-25T07:53:13.167Z,3.40
2022-08-25T07:55:45.142Z,3.20
2022-08-25T07:58:15.790Z,3.20
2022-08-25T08:00:43.540Z,3.50
2022-08-25T08:03:19.926Z,3.10
2022-08-25T08:05:59.816Z,3.50
2022-08-25T08:08:28.368Z,3.70
2022-08-25T08:11:04.526Z,3.40
2022-08-25T08:13:37.913Z,3.90
2022-08-25T08:16:13.466Z,2.90
2022-08-25T08:18:46.103Z,4.10
2022-08-25T08:21:21.945Z,3.30
2022-08-25T08:23:55.430Z,3.40
2022-08-25T08:26:48.348Z,3.40
2022-08-25T08:29:16.492Z,2.90
2022-08-25T08:31:48.756Z,3.20
2022-08-25T08:34:17.175Z,3.20
2022-08-25T08:36:45.245Z,3.00
2022-08-25T08:39:12.944Z,3.60
2022-08-25T08:42:39.782Z,3.50
2022-08-25T08:45:29.642Z,3.60
2022-08-25T08:48:15.563Z,3.70
2022-08-25T08:50:46.744Z,3.30
2022-08-25T08:53:26.140Z,3.40
2022-08-25T08:56:00.360Z,3.90
2022-08-25T08:58:41.634Z,3.40
2022-08-25T09:01:14.209Z,3.60
2022-08-25T09:03:55.165Z,4.00
2022-08-25T09:06:32.284Z,3.60
2022-08-25T09:09:06.812Z,3.80
2022-08-25T09:12:18.207Z,3.50
2022-08-25T09:14:56.372Z,3.30
2022-08-25T09:17:56.440Z,3.00
2022-08-25T09:20:38.924Z,3.30
2022-08-25T09:24:01.070Z,2.90
2022-08-25T09:26:30.362Z,3.30
2022-08-25T09:29:23.464Z,3.30
2022-08-25T09:31:58.293Z,3.40
2022-08-25T09:34:33.324Z,3.50
2022-08-25T09:37:01.780Z,3.90
2022-08-25T09:39:29.360Z,4.00
2022-08-25T09:42:00.269Z,3.60
2022-08-25T09:44:34.870Z,3.90
2022-08-25T09:47:23.337Z,3.60
2022-08-25T09:50:00.829Z,3.60
2022-08-25T09:52:28.337Z,3.70
2022-08-25T09:54:58.709Z,3.70
2022-08-25T09:57:44.933Z,4.20
2022-08-25T10:00:31.783Z,4.30
2022-08-25T10:03:22.702Z,4.00
2022-08-25T10:06:04.228Z,4.00
2022-08-25T10:11:44.816Z,4.10
2022-08-25T10:14:26.529Z,4.00
2022-08-25T10:17:13.605Z,4.00
2022-08-25T10:19:43.012Z,3.90
2022-08-25T10:24:43.836Z,3.80
2022-08-25T10:27:21.160Z,4.00
2022-08-25T10:29:57.409Z,4.10
2022-08-25T10:32:53.604Z,4.00
2022-08-25T10:35:52.265Z,4.10
2022-08-25T10:38:43.750Z,3.90
2022-08-25T10:41:25.512Z,3.80
2022-08-25T10:44:34.059Z,3.90
2022-08-25T10:47:45.657Z,3.40
2022-08-25T10:50:37.486Z,3.70
2022-08-25T10:53:44.996Z,3.50
2022-08-25T10:56:22.802Z,3.60
2022-08-25T10:59:09.541Z,3.60
2022-08-25T11:02:01.514Z,3.20
2022-08-25T11:04:38.460Z,3.50
2022-08-25T11:07:17.223Z,3.30
2022-08-25T11:09:51.074Z,3.30
2022-08-25T11:12:25.876Z,3.20
2022-08-25T11:14:59.534Z,3.30
2022-08-25T11:17:47.430Z,3.60
2022-08-25T11:20:27.338Z,3.10
2022-08-25T11:23:12.205Z,3.00
2022-08-25T11:25:47.989Z,3.10
2022-08-25T11:28:49.733Z,3.50
2022-08-25T11:31:20.652Z,3.30
2022-08-25T11:33:51.799Z,3.30
2022-08-25T11:36:36.928Z,3.70
2022-08-25T11:39:24.442Z,3.30
2022-08-25T11:41:58.333Z,3.50
2022-08-25T11:44:55.857Z,3.20
2022-08-25T11:47:56.704Z,3.30
2022-08-25T11:50:36.935Z,3.70
2022-08-25T11:53:16.605Z,3.30
2022-08-25T11:55:50.751Z,3.30
2022-08-25T11:58:30.697Z,3.90
2022-08-25T12:03:36.948Z,3.20
2022-08-25T12:06:26.396Z,3.60
2022-08-25T12:08:59.902Z,3.50
2022-08-25T12:11:58.206Z,3.20
2022-08-25T12:14:27.965Z,3.10
2022-08-25T12:16:55.825Z,3.40
2022-08-25T12:19:35.632Z,3.10
2022-08-25T12:24:47.874Z,3.10
2022-08-25T12:27:33.631Z,3.20
2022-08-25T12:30:29.234Z,3.50
2022-08-25T12:33:14.866Z,3.20
2022-08-25T12:36:03.143Z,3.60
2022-08-25T12:38:47.280Z,3.20
2022-08-25T12:41:26.498Z,4.00
2022-08-25T12:44:10.853Z,3.80
2022-08-25T12:46:40.182Z,3.40
2022-08-25T12:49:34.746Z,3.60
2022-08-25T12:52:18.726Z,3.50
2022-08-25T12:54:56.321Z,3.30
2022-08-25T12:57:49.783Z,3.00
2022-08-25T13:00:23.714Z,2.90
2022-08-25T13:03:33.137Z,3.10
2022-08-25T13:06:22.548Z,2.70
2022-08-25T13:09:19.899Z,2.70
2022-08-25T13:11:58.120Z,2.60
2022-08-25T13:14:41.202Z,2.60
2022-08-25T13:17:12.098Z,2.90
2022-08-25T13:19:39.633Z,2.60
2022-08-25T13:22:16.518Z,2.60
2022-08-25T13:24:47.465Z,3.20
2022-08-25T13:27:37.407Z,2.70
2022-08-25T13:30:06.052Z,2.80
2022-08-25T13:32:39.018Z,2.80
2022-08-25T13:35:12.498Z,2.90
2022-08-25T13:37:42.500Z,2.90
2022-08-25T13:40:29.735Z,2.80
2022-08-25T13:43:06.022Z,2.80
2022-08-25T13:45:47.887Z,2.80
2022-08-25T13:48:37.301Z,3.00
2022-08-25T13:51:24.664Z,2.50
2022-08-25T13:54:07.087Z,2.70
2022-08-25T13:56:41.102Z,2.50
2022-08-25T13:59:39.977Z,2.90
2022-08-25T14:02:15.315Z,2.80
2022-08-25T14:04:51.322Z,2.30
2022-08-25T14:07:20.916Z,2.60
2022-08-25T14:10:06.466Z,2.80
2022-08-25T14:12:40.206Z,2.40
2022-08-25T14:15:29.581Z,2.50
2022-08-25T14:18:06.529Z,2.60
2022-08-25T14:20:37.167Z,2.60
2022-08-25T14:23:16.256Z,2.60
2022-08-25T14:25:49.426Z,2.90
2022-08-25T14:28:21.451Z,2.50
2022-08-25T14:30:57.314Z,2.90
2022-08-25T14:33:31.648Z,2.70
2022-08-25T14:36:02.835Z,2.90
2022-08-25T14:38:30.826Z,3.00
2022-08-25T14:40:59.263Z,2.70
2022-08-25T14:43:31.558Z,2.70
2022-08-25T14:46:03.883Z,2.90
2022-08-25T14:48:44.708Z,2.70
2022-08-25T14:51:14.815Z,2.60
2022-08-25T14:53:43.946Z,2.60
2022-08-25T14:56:11.661Z,2.60
2022-08-25T14:58:48.430Z,2.70
2022-08-25T15:01:29.148Z,2.50
2022-08-25T15:04:11.665Z,2.20
2022-08-25T15:06:43.637Z,2.30
2022-08-25T15:09:16.400Z,2.10
2022-08-25T15:11:50.747Z,2.30
2022-08-25T15:14:28.923Z,2.80
2022-08-25T15:17:02.398Z,2.60
2022-08-25T15:19:30.592Z,2.20
2022-08-25T15:21:59.211Z,2.50
2022-08-25T15:24:28.774Z,2.00
2022-08-25T15:27:02.813Z,2.00
2022-08-25T15:29:34.940Z,2.00
2022-08-25T15:32:07.069Z,2.30
2022-08-25T15:34:37.404Z,1.90
2022-08-25T15:39:44.625Z,2.00
2022-08-25T15:42:13.048Z,1.90
2022-08-25T15:44:41.240Z,2.10
2022-08-25T15:47:12.773Z,2.30
2022-08-25T15:49:40.343Z,2.20
2022-08-25T15:52:07.802Z,2.20
2022-08-25T15:54:35.415Z,2.20
2022-08-25T15:57:04.348Z,2.00
2022-08-25T15:59:40.273Z,2.20
2022-08-25T16:02:15.098Z,2.30
2022-08-25T16:04:42.965Z,1.90
2022-08-25T16:07:13.182Z,1.80
2022-08-25T16:09:42.032Z,2.30
2022-08-25T16:12:11.841Z,2.30
2022-08-25T16:14:41.471Z,2.40
2022-08-25T16:17:09.505Z,2.20
2022-08-25T16:19:38.168Z,2.40
2022-08-25T16:22:08.912Z,2.20
2022-08-25T16:24:45.081Z,2.50
2022-08-25T16:27:15.314Z,2.40
2022-08-25T16:29:44.652Z,1.90
2022-08-25T16:32:16.075Z,2.10
2022-08-25T16:34:44.541Z,2.20
2022-08-25T16:37:13.877Z,2.10
2022-08-25T16:42:13.678Z,1.80
2022-08-25T16:44:41.393Z,2.10
2022-08-25T16:47:09.254Z,2.00
2022-08-25T16:49:38.007Z,2.40
2022-08-25T16:52:28.604Z,2.10
2022-08-25T16:55:16.206Z,1.90
2022-08-25T16:57:48.539Z,1.80
2022-08-25T17:00:22.451Z,1.60
2022-08-25T17:02:54.868Z,1.70
2022-08-25T17:05:22.278Z,1.50
2022-08-25T17:08:09.968Z,1.50
2022-08-25T17:10:41.876Z,1.40
2022-08-25T17:13:10.756Z,1.30
2022-08-25T17:15:45.730Z,1.00
2022-08-25T17:18:14.005Z,1.10
2022-08-25T17:20:45.361Z,1.00
2022-08-25T17:23:13.338Z,1.40
2022-08-25T17:25:43.193Z,1.10
2022-08-25T17:28:12.761Z,1.00
2022-08-25T17:30:41.660Z,1.20
2022-08-25T17:33:09.211Z,1.10
2022-08-25T17:35:43.693Z,1.20
2022-08-25T17:38:13.183Z,1.00
2022-08-25T17:40:40.844Z,1.10
2022-08-25T17:43:09.116Z,1.20
2022-08-25T17:45:39.717Z,1.20
2022-08-25T17:48:09.206Z,1.20
2022-08-25T17:50:39.154Z,1.00
2022-08-25T17:53:12.412Z,1.30
2022-08-25T17:55:43.092Z,1.10
2022-08-25T17:58:14.505Z,1.00
2022-08-25T18:00:45.870Z,1.10
2022-08-25T18:03:13.403Z,1.40
2022-08-25T18:05:41.794Z,1.10
2022-08-25T18:08:10.683Z,1.40
2022-08-25T18:10:39.716Z,0.90
2022-08-25T18:13:07.491Z,1.10
2022-08-25T18:15:35.663Z,1.10
2022-08-25T18:18:04.596Z,1.10
2022-08-25T18:20:32.271Z,1.50
2022-08-25T18:22:59.807Z,1.40
2022-08-25T18:25:28.894Z,1.40
2022-08-25T18:27:57.652Z,1.30
2022-08-25T18:30:27.393Z,1.30
2022-08-25T18:32:55.019Z,1.40
2022-08-25T18:35:22.703Z,1.60
2022-08-25T18:38:13.058Z,1.50
2022-08-25T18:40:41.012Z,1.30
2022-08-25T18:43:12.278Z,1.30
2022-08-25T18:45:49.408Z,1.40
2022-08-25T18:48:20.368Z,1.50
2022-08-25T18:50:51.740Z,1.50
2022-08-25T18:53:30.615Z,1.30
2022-08-25T18:56:06.139Z,1.30
2022-08-25T18:58:33.876Z,1.40
2022-08-25T19:01:04.698Z,1.50
2022-08-25T19:03:32.637Z,1.30
2022-08-25T19:06:03.105Z,1.30
2022-08-25T19:08:30.942Z,1.30
2022-08-25T19:10:58.446Z,1.30
2022-08-25T19:13:25.906Z,1.40
2022-08-25T19:15:53.945Z,1.40
2022-08-25T19:18:25.990Z,1.40
2022-08-25T19:20:59.158Z,1.60
2022-08-25T19:23:26.936Z,1.20
2022-08-25T19:25:54.563Z,1.40
2022-08-25T19:28:23.844Z,1.50
2022-08-25T19:30:51.538Z,1.60
2022-08-25T19:33:31.412Z,1.40
2022-08-25T19:36:08.811Z,1.50
2022-08-25T19:38:37.993Z,1.50
2022-08-25T19:41:10.450Z,1.40
2022-08-25T19:43:55.406Z,1.60
2022-08-25T19:46:36.291Z,1.30
2022-08-25T19:49:13.347Z,1.10
2022-08-25T19:51:50.556Z,1.10
2022-08-25T19:54:32.899Z,1.30
2022-08-25T19:57:01.275Z,1.10
2022-08-25T19:59:34.175Z,1.10
2022-08-25T20:02:11.557Z,1.00
2022-08-25T20:04:39.253Z,1.30
2022-08-25T20:07:07.733Z,1.20
2022-08-25T20:09:41.079Z,1.00
2022-08-25T20:12:11.985Z,0.90
2022-08-25T20:14:41.260Z,1.20
2022-08-25T20:17:14.586Z,1.00
2022-08-25T20:19:54.407Z,1.00
2022-08-25T20:22:27.218Z,1.10
2022-08-25T20:24:58.661Z,1.10
2022-08-25T20:27:49.867Z,1.10
2022-08-25T20:32:52.588Z,1.10
2022-08-25T20:35:26.714Z,1.10
2022-08-25T20:37:57.177Z,0.80
2022-08-25T20:40:28.691Z,1.10
2022-08-25T20:42:59.219Z,0.90
2022-08-25T20:45:26.821Z,0.90
2022-08-25T20:47:54.269Z,0.90
2022-08-25T20:50:23.682Z,1.00
2022-08-25T20:52:54.542Z,0.70
2022-08-25T20:57:49.993Z,0.90
2022-08-25T21:00:19.744Z,0.70
2022-08-25T21:02:53.418Z,1.00
2022-08-25T21:05:21.265Z,0.80
2022-08-25T21:07:49.004Z,0.90
2022-08-25T21:10:17.150Z,0.70
2022-08-25T21:12:45.288Z,1.20
2022-08-25T21:15:13.825Z,0.80
2022-08-25T21:17:50.828Z,0.90
2022-08-25T21:20:18.467Z,0.90
2022-08-25T21:22:46.290Z,0.90
2022-08-25T21:25:14.457Z,0.80
2022-08-25T21:27:43.428Z,0.90
2022-08-25T21:30:12.548Z,1.00
2022-08-25T21:32:40.044Z,0.90
2022-08-25T21:35:23.202Z,1.20
2022-08-25T21:37:53.294Z,0.90
2022-08-25T21:40:23.159Z,0.80
2022-08-25T21:42:52.506Z,0.90
2022-08-25T21:45:21.827Z,0.90
2022-08-25T21:47:50.285Z,0.90
2022-08-25T21:50:20.452Z,0.80
2022-08-25T21:52:47.993Z,0.90
2022-08-25T21:55:23.443Z,0.90
2022-08-25T21:57:51.438Z,1.00
2022-08-25T22:00:19.293Z,0.80
2022-08-25T22:02:50.027Z,1.00
2022-08-25T22:05:17.960Z,1.10
2022-08-25T22:07:45.415Z,0.90
2022-08-25T22:10:16.765Z,0.80
2022-08-25T22:12:47.557Z,1.00
2022-08-25T22:15:18.018Z,1.00
2022-08-25T22:17:48.229Z,0.90
2022-08-25T22:20:17.875Z,1.00
2022-08-25T22:22:45.591Z,0.90
2022-08-25T22:25:13.716Z,1.00
2022-08-25T22:27:41.174Z,0.90
2022-08-25T22:30:09.969Z,1.30
2022-08-25T22:32:37.574Z,0.90
2022-08-25T22:35:05.680Z,1.10
2022-08-25T22:37:34.077Z,1.40
2022-08-25T22:40:03.649Z,1.10
2022-08-25T22:42:31.554Z,1.10
2022-08-25T22:44:59.161Z,0.90
2022-08-25T22:47:26.947Z,1.10
2022-08-25T22:49:55.671Z,0.90
2022-08-25T22:52:33.101Z,1.20
2022-08-25T22:55:01.941Z,1.20
2022-08-25T22:57:29.352Z,1.20
2022-08-25T22:59:59.127Z,1.40
2022-08-25T23:02:30.259Z,1.30
2022-08-25T23:04:58.077Z,1.20
2022-08-25T23:07:29.269Z,1.30
2022-08-25T23:10:00.084Z,1.20
2022-08-25T23:12:27.507Z,1.30
2022-08-25T23:14:56.959Z,1.40
2022-08-25T23:17:25.583Z,1.60
2022-08-25T23:19:53.077Z,1.60
2022-08-25T23:22:20.964Z,1.60
2022-08-25T23:24:53.495Z,1.60
2022-08-25T23:27:28.699Z,1.40
2022-08-25T23:29:56.198Z,1.60
2022-08-25T23:32:25.721Z,1.60
2022-08-25T23:34:55.743Z,1.40
2022-08-25T23:37:23.250Z,1.80
2022-08-25T23:39:50.913Z,1.50
2022-08-25T23:42:20.703Z,1.80
2022-08-25T23:44:49.734Z,1.60
2022-08-25T23:47:18.254Z,1.60
2022-08-25T23:49:48.244Z,1.60
2022-08-25T23:52:17.519Z,1.80
2022-08-25T23:54:47.317Z,1.60
2022-08-25T23:57:15.083Z,1.70
2022-08-25T23:59:43.284Z,1.60
